createdAt,value
2022-11-18T00:00:23.506Z,176.96
2022-11-18T00:02:29.653Z,180.70
2022-11-18T00:04:35.479Z,169.50
2022-11-18T00:06:42.457Z,175.83
2022-11-18T00:08:50.887Z,168.62
2022-11-18T00:10:59.337Z,145.93
2022-11-18T00:13:18.258Z,152.84
2022-11-18T00:15:28.953Z,151.81
2022-11-18T00:17:37.191Z,139.53
2022-11-18T00:19:44.106Z,143.61
2022-11-18T00:21:50.023Z,142.23
2022-11-18T00:23:55.855Z,137.52
2022-11-18T00:26:09.853Z,140.39
2022-11-18T00:28:15.620Z,139.30
2022-11-18T00:30:23.065Z,139.26
2022-11-18T00:32:29.631Z,138.70
2022-11-18T00:34:35.425Z,148.23
2022-11-18T00:36:43.047Z,142.08
2022-11-18T00:38:49.585Z,198.33
2022-11-18T00:41:03.161Z,202.94
2022-11-18T00:43:08.913Z,150.06
2022-11-18T00:45:15.585Z,150.37
2022-11-18T00:47:21.397Z,146.73
2022-11-18T00:49:28.042Z,162.26
2022-11-18T00:51:34.538Z,201.80
2022-11-18T00:53:40.249Z,192.49
2022-11-18T00:55:46.269Z,191.96
2022-11-18T00:57:52.923Z,195.28
2022-11-18T01:00:09.210Z,206.89
2022-11-18T01:02:33.374Z,200.02
2022-11-18T01:04:39.976Z,198.47
2022-11-18T01:06:45.692Z,178.35
2022-11-18T01:08:51.484Z,142.97
2022-11-18T01:11:18.058Z,159.95
2022-11-18T01:13:24.048Z,143.68
2022-11-18T01:15:32.527Z,138.26
2022-11-18T01:17:45.887Z,129.28
2022-11-18T01:19:51.856Z,138.49
2022-11-18T01:22:09.236Z,139.90
2022-11-18T01:24:22.288Z,138.80
2022-11-18T01:26:28.020Z,134.71
2022-11-18T01:28:33.829Z,133.66
2022-11-18T01:30:44.868Z,143.44
2022-11-18T01:48:08.806Z,214.94
2022-11-18T01:50:19.639Z,215.81
2022-11-18T01:52:26.916Z,206.81
2022-11-18T01:54:39.404Z,212.91
2022-11-18T01:56:53.175Z,212.16
2022-11-18T01:59:08.550Z,216.27
2022-11-18T02:01:17.155Z,207.09
2022-11-18T02:03:33.524Z,213.57
2022-11-18T02:05:46.127Z,201.68
2022-11-18T02:07:54.222Z,203.25
2022-11-18T02:10:11.774Z,216.78
2022-11-18T02:15:14.480Z,165.65
2022-11-18T02:17:44.285Z,159.67
2022-11-18T02:20:21.893Z,154.18
2022-11-18T02:23:00.898Z,153.11
2022-11-18T02:25:24.973Z,163.42
2022-11-18T02:28:20.627Z,159.89
2022-11-18T02:30:29.077Z,159.03
2022-11-18T02:32:45.049Z,151.03
2022-11-18T02:35:05.546Z,152.08
2022-11-18T02:37:25.115Z,148.38
2022-11-18T02:39:41.371Z,161.37
2022-11-18T02:41:52.666Z,145.88
2022-11-18T02:44:07.663Z,144.87
2022-11-18T02:46:26.920Z,137.71
2022-11-18T04:35:23.517Z,167.46
2022-11-18T04:37:30.339Z,161.85
2022-11-18T04:39:36.381Z,164.72
2022-11-18T04:41:54.457Z,158.45
2022-11-18T04:44:13.356Z,170.75
2022-11-18T04:46:19.251Z,175.97
2022-11-18T04:48:27.034Z,173.34
2022-11-18T04:50:42.866Z,175.45
2022-11-18T04:52:48.586Z,176.23
2022-11-18T04:54:54.257Z,176.70
2022-11-18T04:57:01.438Z,171.19
2022-11-18T04:59:08.895Z,183.59
2022-11-18T05:01:14.674Z,186.69
2022-11-18T05:03:21.208Z,193.23
2022-11-18T05:05:26.935Z,191.49
2022-11-18T05:07:35.252Z,187.78
2022-11-18T05:09:41.807Z,189.99
2022-11-18T05:12:01.033Z,185.87
2022-11-18T05:14:06.792Z,185.69
2022-11-18T05:16:13.321Z,177.48
2022-11-18T05:18:19.185Z,189.64
2022-11-18T05:20:25.014Z,187.52
2022-11-18T05:22:40.854Z,178.55
2022-11-18T05:24:49.952Z,184.49
2022-11-18T05:26:56.168Z,182.79
2022-11-18T05:29:09.909Z,185.67
2022-11-18T05:31:19.540Z,198.58
2022-11-18T05:33:32.768Z,202.36
2022-11-18T05:35:40.626Z,202.04
2022-11-18T05:37:48.966Z,165.08
2022-11-18T05:39:54.778Z,158.59
2022-11-18T05:42:19.888Z,165.40
2022-11-18T05:44:28.539Z,159.93
2022-11-18T05:46:35.599Z,160.55
2022-11-18T05:48:42.253Z,163.97
2022-11-18T05:50:54.488Z,175.79
2022-11-18T05:53:02.966Z,174.65
2022-11-18T05:55:12.275Z,171.73
2022-11-18T05:57:18.107Z,174.56
2022-11-18T05:59:24.595Z,172.20
2022-11-18T06:01:40.563Z,175.95
2022-11-18T06:03:46.913Z,176.60
2022-11-18T06:05:56.200Z,176.27
2022-11-18T06:08:12.751Z,176.96
2022-11-18T06:10:27.683Z,180.98
2022-11-18T06:12:48.444Z,182.71
2022-11-18T06:15:03.892Z,181.60
2022-11-18T06:17:21.963Z,190.12
2022-11-18T06:19:34.956Z,188.73
2022-11-18T06:21:41.758Z,191.99
2022-11-18T06:23:51.311Z,197.63
2022-11-18T06:26:02.468Z,197.81
2022-11-18T06:28:09.309Z,192.62
2022-11-18T06:30:17.201Z,187.62
2022-11-18T06:32:29.610Z,196.07
2022-11-18T06:34:41.247Z,198.18
2022-11-18T06:36:47.716Z,205.23
2022-11-18T06:38:56.131Z,207.67
2022-11-18T06:41:09.599Z,206.90
2022-11-18T06:43:28.564Z,209.84
2022-11-18T06:45:34.609Z,221.41
2022-11-18T06:47:38.691Z,226.77
2022-11-18T06:49:44.502Z,221.72
2022-11-18T06:51:50.296Z,215.14
2022-11-18T06:53:59.789Z,216.95
2022-11-18T06:56:20.053Z,209.63
2022-11-18T06:58:25.745Z,215.66
2022-11-18T07:00:32.378Z,212.91
2022-11-18T07:02:39.930Z,216.10
2022-11-18T07:04:45.651Z,207.51
2022-11-18T07:06:52.499Z,214.87
2022-11-18T07:09:03.852Z,214.04
2022-11-18T07:11:14.781Z,206.28
2022-11-18T07:13:21.347Z,194.73
2022-11-18T07:15:42.489Z,209.47
2022-11-18T07:17:48.171Z,207.01
2022-11-18T07:19:56.525Z,202.71
2022-11-18T07:22:02.470Z,200.61
2022-11-18T07:24:18.729Z,208.63
2022-11-18T07:26:26.244Z,202.31
2022-11-18T07:28:33.745Z,192.04
2022-11-18T07:30:39.494Z,193.88
2022-11-18T07:32:46.023Z,215.89
2022-11-18T07:34:55.626Z,223.65
2022-11-18T07:37:01.345Z,219.95
2022-11-18T07:39:11.569Z,215.13
2022-11-18T07:41:20.072Z,194.62
2022-11-18T07:43:25.939Z,206.32
2022-11-18T07:45:32.647Z,200.00
2022-11-18T07:47:38.408Z,189.64
2022-11-18T07:49:44.227Z,171.73
2022-11-18T07:51:50.769Z,189.97
2022-11-18T07:53:57.507Z,190.14
2022-11-18T07:56:13.495Z,187.05
2022-11-18T07:58:20.052Z,188.04
2022-11-18T08:00:26.434Z,201.56
2022-11-18T08:02:32.360Z,194.29
2022-11-18T08:04:40.979Z,198.02
2022-11-18T08:06:46.751Z,185.94
2022-11-18T08:08:52.556Z,210.69
2022-11-18T08:11:00.104Z,199.56
2022-11-18T08:13:08.510Z,178.63
2022-11-18T08:15:20.638Z,164.93
2022-11-18T08:17:27.304Z,151.47
2022-11-18T08:19:37.516Z,155.16
2022-11-18T08:21:43.279Z,166.64
2022-11-18T08:23:54.205Z,170.36
2022-11-18T08:26:07.092Z,171.75
2022-11-18T08:28:17.704Z,169.62
2022-11-18T08:30:24.655Z,189.18
2022-11-18T08:32:30.780Z,207.38
2022-11-18T08:34:36.716Z,210.01
2022-11-18T08:36:43.773Z,214.69
2022-11-18T08:38:49.440Z,185.05
2022-11-18T08:40:55.895Z,200.58
2022-11-18T08:43:02.391Z,209.74
2022-11-18T08:45:12.290Z,222.59
2022-11-18T08:47:20.875Z,196.85
2022-11-18T08:49:32.235Z,207.72
2022-11-18T08:51:38.255Z,192.14
2022-11-18T08:53:43.970Z,194.95
2022-11-18T08:55:59.580Z,185.83
2022-11-18T08:58:05.305Z,189.71
2022-11-18T09:00:16.511Z,198.20
2022-11-18T09:02:26.774Z,194.72
2022-11-18T09:04:32.748Z,185.91
2022-11-18T09:06:46.462Z,188.78
2022-11-18T09:08:53.207Z,183.22
2022-11-18T09:10:58.986Z,168.50
2022-11-18T09:13:25.271Z,166.65
2022-11-18T09:15:36.946Z,167.49
2022-11-18T09:17:42.644Z,179.32
2022-11-18T09:19:48.643Z,186.07
2022-11-18T09:22:02.923Z,197.66
2022-11-18T09:24:17.076Z,199.69
2022-11-18T09:26:26.719Z,200.39
2022-11-18T09:28:36.211Z,180.49
2022-11-18T09:30:46.326Z,203.24
2022-11-18T09:32:58.953Z,174.41
2022-11-18T09:35:05.990Z,198.88
2022-11-18T09:39:16.359Z,189.45
2022-11-18T09:41:46.784Z,210.01
2022-11-18T09:44:16.798Z,212.97
2022-11-18T09:46:36.861Z,224.66
2022-11-18T09:48:55.048Z,210.18
2022-11-18T09:51:01.464Z,205.13
2022-11-18T09:53:22.118Z,193.66
2022-11-18T09:55:33.470Z,205.63
2022-11-18T09:57:46.963Z,201.63
2022-11-18T09:59:54.961Z,201.73
2022-11-18T10:02:29.875Z,186.93
2022-11-18T10:04:35.584Z,199.96
2022-11-18T10:06:42.295Z,208.32
2022-11-18T10:09:16.366Z,211.79
2022-11-18T10:11:31.920Z,220.91
2022-11-18T10:13:58.582Z,245.13
2022-11-18T10:16:30.665Z,223.09
2022-11-18T10:19:00.334Z,205.47
2022-11-18T10:21:27.553Z,186.13
2022-11-18T10:23:54.094Z,202.58
2022-11-18T10:25:59.959Z,194.43
2022-11-18T10:28:29.701Z,192.60
2022-11-18T10:30:35.822Z,206.26
2022-11-18T10:32:58.109Z,203.21
2022-11-18T10:35:04.611Z,205.95
2022-11-18T10:37:38.655Z,201.62
2022-11-18T10:39:56.255Z,222.44
2022-11-18T10:42:09.775Z,224.52
2022-11-18T10:44:40.329Z,223.67
2022-11-18T10:46:46.840Z,228.46
2022-11-18T10:49:19.016Z,275.21
2022-11-18T10:51:28.022Z,283.56
2022-11-18T10:53:39.163Z,292.20
2022-11-18T10:56:01.122Z,295.14
2022-11-18T10:58:22.234Z,296.21
2022-11-18T11:00:48.647Z,287.60
2022-11-18T11:02:56.394Z,288.97
2022-11-18T11:05:07.495Z,290.06
2022-11-18T11:07:32.284Z,302.17
2022-11-18T11:09:45.247Z,329.70
2022-11-18T11:12:04.980Z,303.73
2022-11-18T11:14:26.503Z,303.72
2022-11-18T11:16:50.993Z,306.44
2022-11-18T11:19:05.297Z,285.21
2022-11-18T11:21:17.793Z,287.02
2022-11-18T11:23:28.138Z,282.25
2022-11-18T11:28:30.535Z,294.88
2022-11-18T11:30:49.207Z,296.22
2022-11-18T11:33:24.996Z,301.54
2022-11-18T11:35:45.733Z,296.65
2022-11-18T11:37:58.893Z,309.69
2022-11-18T11:40:29.608Z,323.01
2022-11-18T11:42:59.126Z,322.98
2022-11-18T11:45:27.033Z,332.35
2022-11-18T11:47:57.166Z,330.41
2022-11-18T11:50:25.547Z,324.79
2022-11-18T11:52:48.403Z,316.92
2022-11-18T11:55:18.765Z,336.39
2022-11-18T11:57:48.252Z,300.99
2022-11-18T12:00:08.030Z,304.24
2022-11-18T12:02:56.625Z,291.63
2022-11-18T12:05:24.276Z,289.91
2022-11-18T12:07:41.321Z,299.07
2022-11-18T12:10:23.989Z,306.73
2022-11-18T12:12:47.818Z,286.05
2022-11-18T12:15:07.909Z,290.46
2022-11-18T12:17:29.003Z,298.18
2022-11-18T12:19:42.540Z,292.85
2022-11-18T12:22:07.829Z,296.97
2022-11-18T12:24:37.172Z,287.28
2022-11-18T12:26:43.997Z,303.71
2022-11-18T12:28:50.219Z,312.56
2022-11-18T12:31:39.069Z,290.42
2022-11-18T12:33:48.320Z,313.21
2022-11-18T12:35:55.299Z,317.53
2022-11-18T12:38:06.193Z,300.09
2022-11-18T12:40:33.460Z,301.92
2022-11-18T12:43:00.988Z,306.14
2022-11-18T12:46:03.118Z,313.59
2022-11-18T12:48:46.255Z,319.53
2022-11-18T12:50:54.591Z,322.32
2022-11-18T12:53:00.255Z,303.03
2022-11-18T12:55:21.701Z,308.61
2022-11-18T12:57:33.189Z,295.39
2022-11-18T12:59:41.659Z,285.73
2022-11-18T13:01:48.443Z,282.55
2022-11-18T13:03:55.630Z,287.79
2022-11-18T13:06:09.547Z,299.57
2022-11-18T13:08:21.057Z,292.12
2022-11-18T13:10:35.250Z,321.91
2022-11-18T13:12:41.111Z,301.37
2022-11-18T13:15:01.292Z,288.19
2022-11-18T13:17:43.423Z,266.48
2022-11-18T13:20:01.113Z,274.34
2022-11-18T13:22:31.583Z,262.91
2022-11-18T13:24:48.882Z,249.46
2022-11-18T13:27:04.842Z,284.29
2022-11-18T13:29:38.837Z,284.91
2022-11-18T13:32:05.740Z,290.09
2022-11-18T13:34:21.792Z,289.88
2022-11-18T13:36:29.607Z,270.45
2022-11-18T13:38:35.510Z,262.38
2022-11-18T13:41:04.726Z,267.81
2022-11-18T13:43:15.565Z,289.86
2022-11-18T13:45:23.323Z,278.64
2022-11-18T13:47:44.607Z,267.71
2022-11-18T13:50:03.467Z,263.86
2022-11-18T13:52:16.292Z,267.51
2022-11-18T13:54:30.340Z,287.14
2022-11-18T13:56:37.078Z,280.17
2022-11-18T14:01:26.676Z,273.82
2022-11-18T14:03:39.862Z,251.68
2022-11-18T14:05:45.523Z,239.30
2022-11-18T14:08:09.177Z,263.70
2022-11-18T14:10:19.294Z,265.99
2022-11-18T14:12:29.196Z,258.36
2022-11-18T14:14:41.458Z,270.30
2022-11-18T14:16:47.292Z,283.24
2022-11-18T14:18:55.110Z,285.56
2022-11-18T14:21:04.616Z,293.15
2022-11-18T14:23:20.932Z,286.25
2022-11-18T14:25:34.355Z,296.75
2022-11-18T14:27:45.590Z,300.00
2022-11-18T14:29:55.805Z,303.62
2022-11-18T14:32:23.602Z,295.10
2022-11-18T14:34:31.300Z,284.73
2022-11-18T14:40:49.524Z,290.86
2022-11-18T14:42:55.241Z,304.86
2022-11-18T14:45:01.048Z,310.38
2022-11-18T14:47:27.072Z,324.14
2022-11-18T14:49:34.939Z,306.43
2022-11-18T14:51:40.722Z,308.90
2022-11-18T14:53:49.863Z,310.85
2022-11-18T14:56:01.595Z,312.69
2022-11-18T14:58:07.354Z,303.06
2022-11-18T15:00:19.830Z,287.76
2022-11-18T15:02:26.606Z,283.05
2022-11-18T15:04:32.363Z,292.60
2022-11-18T15:06:40.076Z,296.23
2022-11-18T15:08:51.642Z,285.93
2022-11-18T15:10:57.298Z,299.82
2022-11-18T15:13:04.232Z,369.42
2022-11-18T15:15:11.031Z,410.66
2022-11-18T15:17:22.474Z,307.59
2022-11-18T15:19:32.281Z,322.81
2022-11-18T15:21:38.117Z,310.59
2022-11-18T15:23:44.276Z,278.13
2022-11-18T15:25:53.462Z,280.11
2022-11-18T15:27:59.180Z,283.40
2022-11-18T15:30:05.553Z,272.99
2022-11-18T15:32:18.790Z,241.85
2022-11-18T15:34:25.001Z,239.84
2022-11-18T15:36:37.981Z,244.05
2022-11-18T15:38:56.015Z,227.65
2022-11-18T15:41:04.380Z,216.59
2022-11-18T15:43:10.216Z,201.43
2022-11-18T15:45:16.782Z,202.16
2022-11-18T15:47:22.604Z,228.99
2022-11-18T15:49:28.669Z,244.14
2022-11-18T15:51:35.330Z,229.70
2022-11-18T15:53:41.268Z,235.88
2022-11-18T15:55:47.076Z,257.43
2022-11-18T15:57:56.241Z,254.92
2022-11-18T16:00:08.111Z,232.69
2022-11-18T16:02:18.204Z,274.96
2022-11-18T16:04:24.787Z,269.30
2022-11-18T16:06:31.030Z,261.41
2022-11-18T16:08:36.709Z,278.19
2022-11-18T16:10:55.570Z,351.08
2022-11-18T16:13:03.879Z,303.05
2022-11-18T16:15:29.331Z,258.74
2022-11-18T16:17:38.202Z,252.44
2022-11-18T16:19:44.011Z,230.83
2022-11-18T16:21:53.439Z,242.81
2022-11-18T16:24:05.974Z,214.45
2022-11-18T16:26:11.750Z,217.54
2022-11-18T16:28:20.159Z,227.53
2022-11-18T16:30:39.168Z,226.80
2022-11-18T16:32:44.812Z,244.62
2022-11-18T16:34:51.795Z,241.65
2022-11-18T16:37:02.848Z,266.83
2022-11-18T16:39:32.019Z,258.28
2022-11-18T16:42:08.050Z,236.65
2022-11-18T16:44:19.498Z,245.11
2022-11-18T16:46:25.147Z,246.89
2022-11-18T16:48:30.995Z,258.79
2022-11-18T16:52:05.021Z,241.20
2022-11-18T16:54:20.990Z,253.08
2022-11-18T16:56:29.916Z,264.15
2022-11-18T16:58:42.329Z,266.19
2022-11-18T17:01:16.835Z,286.56
2022-11-18T17:03:14.517Z,289.27
2022-11-18T17:05:20.308Z,261.55
2022-11-18T17:07:31.596Z,248.42
2022-11-18T17:09:41.258Z,247.40
2022-11-18T17:11:47.434Z,254.63
2022-11-18T17:13:58.045Z,257.00
2022-11-18T17:16:07.997Z,274.15
2022-11-18T17:18:13.761Z,261.22
2022-11-18T17:20:22.238Z,231.07
2022-11-18T17:22:30.721Z,244.33
2022-11-18T17:24:36.557Z,246.01
2022-11-18T17:28:10.811Z,270.87
2022-11-18T17:30:18.148Z,252.10
2022-11-18T17:32:23.803Z,309.62
2022-11-18T17:34:29.565Z,280.59
2022-11-18T17:36:36.261Z,303.58
2022-11-18T17:38:45.120Z,314.29
2022-11-18T17:40:57.714Z,314.34
2022-11-18T17:43:01.809Z,307.34
2022-11-18T17:45:12.725Z,342.88
2022-11-18T17:47:21.240Z,348.46
2022-11-18T17:49:27.915Z,340.09
2022-11-18T17:51:34.801Z,349.86
2022-11-18T17:53:43.499Z,378.94
2022-11-18T17:55:50.832Z,315.14
2022-11-18T17:57:59.261Z,338.17
2022-11-18T18:00:05.686Z,330.91
2022-11-18T18:02:18.891Z,325.32
2022-11-18T18:04:24.976Z,319.43
2022-11-18T18:06:30.720Z,338.06
2022-11-18T18:08:37.993Z,329.30
2022-11-18T18:10:46.377Z,326.06
2022-11-18T18:13:04.640Z,288.92
2022-11-18T18:15:12.480Z,279.28
2022-11-18T18:17:21.247Z,283.67
2022-11-18T18:19:28.331Z,293.50
2022-11-18T18:21:35.861Z,280.01
2022-11-18T18:23:41.663Z,289.69
2022-11-18T18:25:47.378Z,273.68
2022-11-18T18:27:54.056Z,275.24
2022-11-18T18:29:59.810Z,260.31
2022-11-18T18:32:06.458Z,266.90
2022-11-18T18:34:15.700Z,278.98
2022-11-18T18:36:25.345Z,301.63
2022-11-18T18:38:34.533Z,287.06
2022-11-18T18:40:41.100Z,278.90
2022-11-18T18:45:01.695Z,271.14
2022-11-18T18:47:08.335Z,278.12
2022-11-18T18:49:20.631Z,295.56
2022-11-18T18:51:26.894Z,302.80
2022-11-18T18:53:34.711Z,303.39
2022-11-18T18:55:44.718Z,298.40
2022-11-18T18:57:50.857Z,298.63
2022-11-18T19:00:00.046Z,300.91
2022-11-18T19:02:06.821Z,306.13
2022-11-18T19:04:16.786Z,288.78
2022-11-18T19:06:52.003Z,273.64
2022-11-18T19:08:52.902Z,279.82
2022-11-18T19:10:58.676Z,276.56
2022-11-18T19:13:02.681Z,276.90
2022-11-18T19:15:14.039Z,273.73
2022-11-18T19:17:19.960Z,259.72
2022-11-18T19:19:42.901Z,235.84
2022-11-18T19:21:50.217Z,244.55
2022-11-18T19:23:56.803Z,259.97
2022-11-18T19:26:03.536Z,253.11
2022-11-18T19:28:09.313Z,244.31
2022-11-18T19:30:17.956Z,255.39
2022-11-18T19:32:24.619Z,270.91
2022-11-18T19:34:30.350Z,272.55
2022-11-18T19:36:37.432Z,278.06
2022-11-18T19:38:44.537Z,235.56
2022-11-18T19:40:50.490Z,207.84
2022-11-18T19:42:56.867Z,210.77
2022-11-18T19:45:03.481Z,214.83
2022-11-18T19:47:11.920Z,204.09
2022-11-18T19:49:18.070Z,192.87
2022-11-18T19:51:26.107Z,191.64
2022-11-18T19:53:39.264Z,194.84
2022-11-18T19:55:45.016Z,192.32
2022-11-18T19:57:51.731Z,180.62
2022-11-18T19:59:57.545Z,180.52
2022-11-18T20:02:03.705Z,190.50
2022-11-18T20:04:12.962Z,199.14
2022-11-18T20:06:20.659Z,198.55
2022-11-18T20:08:28.233Z,209.42
2022-11-18T20:10:35.090Z,217.82
2022-11-18T20:12:40.942Z,217.36
2022-11-18T20:14:46.698Z,221.62
2022-11-18T20:16:54.599Z,211.81
2022-11-18T20:19:09.315Z,197.70
2022-11-18T20:21:23.037Z,213.76
2022-11-18T20:23:29.513Z,208.30
2022-11-18T20:25:35.287Z,207.67
2022-11-18T20:27:41.166Z,191.01
2022-11-18T20:29:48.448Z,194.68
2022-11-18T20:31:55.287Z,182.89
2022-11-18T20:34:01.107Z,195.49
2022-11-18T20:36:10.501Z,183.18
2022-11-18T20:38:18.910Z,190.51
2022-11-18T20:40:24.652Z,169.19
2022-11-18T20:42:44.221Z,170.43
2022-11-18T20:44:50.334Z,164.61
2022-11-18T20:46:56.072Z,154.67
2022-11-18T20:49:19.541Z,159.60
2022-11-18T20:51:29.061Z,146.70
2022-11-18T20:53:38.943Z,158.82
2022-11-18T20:55:44.917Z,163.73
2022-11-18T20:57:51.663Z,164.46
2022-11-18T20:59:57.497Z,155.09
2022-11-18T21:02:03.488Z,170.48
2022-11-18T21:04:10.071Z,174.33
2022-11-18T21:06:17.880Z,173.36
2022-11-18T21:08:23.706Z,175.32
2022-11-18T21:10:33.568Z,162.66
2022-11-18T21:12:59.368Z,167.30
2022-11-18T21:15:02.914Z,167.19
2022-11-18T21:17:09.539Z,169.47
2022-11-18T21:19:16.807Z,163.88
2022-11-18T21:21:40.689Z,163.28
2022-11-18T21:23:47.356Z,175.85
2022-11-18T21:25:55.940Z,186.47
2022-11-18T21:28:02.093Z,187.35
2022-11-18T21:30:10.817Z,186.57
2022-11-18T21:32:19.067Z,189.84
2022-11-18T21:34:25.627Z,178.98
2022-11-18T21:36:32.654Z,184.52
2022-11-18T21:38:38.445Z,183.45
2022-11-18T21:40:44.297Z,169.29
2022-11-18T21:42:58.128Z,167.23
2022-11-18T21:45:03.946Z,175.24
2022-11-18T21:47:09.650Z,172.79
2022-11-18T21:49:16.612Z,178.11
2022-11-18T21:51:25.462Z,155.84
2022-11-18T21:53:32.069Z,159.24
2022-11-18T21:55:38.629Z,173.34
2022-11-18T21:57:44.612Z,163.36
2022-11-18T21:59:56.296Z,153.84
2022-11-18T22:02:02.833Z,155.18
2022-11-18T22:04:29.077Z,156.65
2022-11-18T22:06:37.153Z,148.07
2022-11-18T22:08:45.391Z,170.06
2022-11-18T22:10:51.144Z,166.26
2022-11-18T22:12:56.939Z,157.27
2022-11-18T22:15:06.273Z,160.24
2022-11-18T22:17:12.521Z,169.19
2022-11-18T22:19:18.170Z,171.34
2022-11-18T22:21:26.672Z,170.34
2022-11-18T22:23:35.443Z,168.19
2022-11-18T22:25:41.244Z,170.04
2022-11-18T22:27:47.748Z,171.60
2022-11-18T22:29:53.498Z,167.24
2022-11-18T22:32:02.070Z,165.27
2022-11-18T22:34:08.726Z,175.96
2022-11-18T22:36:17.998Z,181.04
2022-11-18T22:38:23.704Z,182.88
2022-11-18T22:40:30.362Z,187.13
2022-11-18T22:42:48.337Z,191.22
2022-11-18T22:44:54.090Z,191.78
2022-11-18T22:47:03.293Z,193.52
2022-11-18T22:49:10.921Z,195.50
2022-11-18T22:51:16.690Z,195.75
2022-11-18T22:53:23.334Z,201.09
2022-11-18T22:55:29.094Z,202.19
2022-11-18T22:57:36.962Z,209.48
2022-11-18T22:59:43.584Z,213.76
2022-11-18T23:01:49.350Z,215.95
2022-11-18T23:03:57.723Z,219.49
2022-11-18T23:06:06.236Z,217.62
2022-11-18T23:08:11.938Z,222.46
2022-11-18T23:10:17.896Z,213.86
2022-11-18T23:12:36.897Z,222.94
2022-11-18T23:14:42.690Z,228.76
2022-11-18T23:16:48.634Z,222.10
2022-11-18T23:18:57.728Z,208.47
2022-11-18T23:21:05.891Z,209.40
2022-11-18T23:23:11.616Z,205.64
2022-11-18T23:25:18.441Z,199.92
2022-11-18T23:27:24.132Z,212.92
2022-11-18T23:29:30.051Z,214.47
2022-11-18T23:31:37.097Z,205.39
2022-11-18T23:33:44.570Z,208.99
2022-11-18T23:35:57.872Z,206.80
2022-11-18T23:38:04.406Z,205.39
2022-11-18T23:40:12.536Z,207.54
2022-11-18T23:42:18.217Z,203.00
2022-11-18T23:44:45.032Z,208.83
2022-11-18T23:46:50.730Z,203.24
2022-11-18T23:48:57.059Z,207.66
2022-11-18T23:51:09.642Z,190.97
2022-11-18T23:53:15.378Z,191.63
2022-11-18T23:55:21.114Z,193.52
2022-11-18T23:57:30.545Z,199.19
2022-11-18T23:59:36.756Z,200.80
